KCVN/CVN METAR and TAF weather

Enter ICAO airport designator
Station Type Date Time Source
KCVN METAR 2020/12/06 01:56 UTC NOAA

KCVN 060156Z AUTO 34007KT 8SM CLR 03/M07 A3028 RMK AO2 SLP275 T00281072


Station Type Date Time Source
KCVN Decoded METAR 2020/12/06 01:56 UTC NOAA

Clovis, Clovis Municipal Airport, NM, United States (KCVN) 34-26N 103-05W
Dec 05, 2020 - 08:56 PM EST / 2020.12.06 0156 UTC
Wind: from the NNW (340 degrees) at 8 MPH (7 KT):0
Visibility: 8 mile(s):0
Sky conditions: clear
Temperature: 37.0 F (2.8 C)
Dew Point: 19.0 F (-7.2 C)
Relative Humidity: 47%
Pressure (altimeter): 30.28 in. Hg (1025 hPa)
ob: KCVN 060156Z AUTO 34007KT 8SM CLR 03/M07 A3028 RMK AO2 SLP275 T00281072
cycle: 2

Station Type Date Time Source
KCVN TAF UTC NOAA

Error!

Example: see airport list